sensor_id;sensor_type;location;lat;lon;timestamp;P1;durP1;ratioP1;P2;durP2;ratioP2
17372;SDS011;8803;48.116;11.590;2023-05-16T00:02:37;4.40;;;4.00;;
17372;SDS011;8803;48.116;11.590;2023-05-16T00:04:42;4.13;;;3.80;;
17372;SDS011;8803;48.116;11.590;2023-05-16T00:06:55;3.90;;;3.60;;
17372;SDS011;8803;48.116;11.590;2023-05-16T00:08:59;3.90;;;3.60;;
17372;SDS011;8803;48.116;11.590;2023-05-16T00:11:03;3.87;;;3.57;;
17372;SDS011;8803;48.116;11.590;2023-05-16T00:13:17;4.00;;;3.70;;
17372;SDS011;8803;48.116;11.590;2023-05-16T00:15:23;4.00;;;3.70;;
17372;SDS011;8803;48.116;11.590;2023-05-16T00:17:27;4.03;;;3.73;;
17372;SDS011;8803;48.116;11.590;2023-05-16T00:19:31;3.67;;;3.37;;
17372;SDS011;8803;48.116;11.590;2023-05-16T00:21:36;4.20;;;3.83;;
17372;SDS011;8803;48.116;11.590;2023-05-16T00:23:48;3.87;;;3.57;;
17372;SDS011;8803;48.116;11.590;2023-05-16T00:25:52;5.37;;;4.00;;
17372;SDS011;8803;48.116;11.590;2023-05-16T00:27:56;4.33;;;4.03;;
17372;SDS011;8803;48.116;11.590;2023-05-16T00:30:00;4.10;;;3.80;;
17372;SDS011;8803;48.116;11.590;2023-05-16T00:32:05;4.33;;;3.93;;
17372;SDS011;8803;48.116;11.590;2023-05-16T00:34:20;4.13;;;3.80;;
17372;SDS011;8803;48.116;11.590;2023-05-16T00:36:24;4.13;;;3.80;;
17372;SDS011;8803;48.116;11.590;2023-05-16T00:38:28;4.17;;;3.87;;
17372;SDS011;8803;48.116;11.590;2023-05-16T00:40:32;4.07;;;3.60;;
17372;SDS011;8803;48.116;11.590;2023-05-16T00:42:36;3.77;;;3.47;;
17372;SDS011;8803;48.116;11.590;2023-05-16T00:44:50;4.20;;;3.90;;
17372;SDS011;8803;48.116;11.590;2023-05-16T00:46:54;4.10;;;3.80;;
17372;SDS011;8803;48.116;11.590;2023-05-16T00:48:58;3.67;;;3.37;;
17372;SDS011;8803;48.116;11.590;2023-05-16T00:51:02;3.80;;;3.50;;
17372;SDS011;8803;48.116;11.590;2023-05-16T00:53:14;4.40;;;4.00;;
17372;SDS011;8803;48.116;11.590;2023-05-16T00:55:18;4.27;;;3.90;;
17372;SDS011;8803;48.116;11.590;2023-05-16T00:57:23;4.20;;;3.80;;
17372;SDS011;8803;48.116;11.590;2023-05-16T00:59:26;4.47;;;4.07;;
17372;SDS011;8803;48.116;11.590;2023-05-16T01:03:43;3.87;;;3.57;;
17372;SDS011;8803;48.116;11.590;2023-05-16T01:05:47;3.90;;;3.60;;
17372;SDS011;8803;48.116;11.590;2023-05-16T01:07:51;4.73;;;4.30;;
17372;SDS011;8803;48.116;11.590;2023-05-16T01:09:54;4.33;;;3.90;;
17372;SDS011;8803;48.116;11.590;2023-05-16T01:12:00;5.03;;;4.63;;
17372;SDS011;8803;48.116;11.590;2023-05-16T01:14:18;4.40;;;4.00;;
17372;SDS011;8803;48.116;11.590;2023-05-16T01:16:25;12.90;;;11.60;;
17372;SDS011;8803;48.116;11.590;2023-05-16T01:18:35;13.27;;;11.97;;
17372;SDS011;8803;48.116;11.590;2023-05-16T01:20:43;8.13;;;7.37;;
17372;SDS011;8803;48.116;11.590;2023-05-16T01:22:52;5.07;;;4.57;;
17372;SDS011;8803;48.116;11.590;2023-05-16T01:25:05;4.10;;;3.60;;
17372;SDS011;8803;48.116;11.590;2023-05-16T01:27:14;4.20;;;3.90;;
17372;SDS011;8803;48.116;11.590;2023-05-16T01:29:27;4.33;;;4.03;;
17372;SDS011;8803;48.116;11.590;2023-05-16T01:31:32;4.33;;;3.93;;
17372;SDS011;8803;48.116;11.590;2023-05-16T01:33:44;4.10;;;3.80;;
17372;SDS011;8803;48.116;11.590;2023-05-16T01:35:52;4.20;;;3.87;;
17372;SDS011;8803;48.116;11.590;2023-05-16T01:38:01;4.43;;;4.03;;
17372;SDS011;8803;48.116;11.590;2023-05-16T01:40:14;4.43;;;4.03;;
17372;SDS011;8803;48.116;11.590;2023-05-16T01:42:20;3.90;;;3.60;;
17372;SDS011;8803;48.116;11.590;2023-05-16T01:44:35;4.30;;;3.87;;
17372;SDS011;8803;48.116;11.590;2023-05-16T01:46:41;4.53;;;4.13;;
17372;SDS011;8803;48.116;11.590;2023-05-16T01:48:50;4.60;;;4.20;;
17372;SDS011;8803;48.116;11.590;2023-05-16T01:51:04;4.77;;;4.37;;
17372;SDS011;8803;48.116;11.590;2023-05-16T01:53:11;4.53;;;4.13;;
17372;SDS011;8803;48.116;11.590;2023-05-16T01:55:27;4.13;;;3.83;;
17372;SDS011;8803;48.116;11.590;2023-05-16T01:57:33;4.13;;;3.83;;
17372;SDS011;8803;48.116;11.590;2023-05-16T01:59:40;4.60;;;4.20;;
17372;SDS011;8803;48.116;11.590;2023-05-16T02:01:53;4.60;;;4.20;;
17372;SDS011;8803;48.116;11.590;2023-05-16T02:03:59;4.77;;;4.37;;
17372;SDS011;8803;48.116;11.590;2023-05-16T02:06:11;5.00;;;4.57;;
17372;SDS011;8803;48.116;11.590;2023-05-16T02:08:15;4.60;;;4.20;;
17372;SDS011;8803;48.116;11.590;2023-05-16T02:10:19;4.83;;;4.30;;
17372;SDS011;8803;48.116;11.590;2023-05-16T02:12:24;5.10;;;4.57;;
17372;SDS011;8803;48.116;11.590;2023-05-16T02:14:38;5.37;;;4.37;;
17372;SDS011;8803;48.116;11.590;2023-05-16T02:16:42;5.27;;;4.50;;
17372;SDS011;8803;48.116;11.590;2023-05-16T02:18:46;5.00;;;4.60;;
17372;SDS011;8803;48.116;11.590;2023-05-16T02:20:51;4.77;;;4.37;;
17372;SDS011;8803;48.116;11.590;2023-05-16T02:23:05;5.07;;;4.67;;
17372;SDS011;8803;48.116;11.590;2023-05-16T02:25:09;5.07;;;4.57;;
17372;SDS011;8803;48.116;11.590;2023-05-16T02:27:13;4.53;;;4.17;;
17372;SDS011;8803;48.116;11.590;2023-05-16T02:31:31;5.40;;;5.00;;
17372;SDS011;8803;48.116;11.590;2023-05-16T02:33:45;5.53;;;5.03;;
17372;SDS011;8803;48.116;11.590;2023-05-16T02:35:49;5.27;;;4.77;;
17372;SDS011;8803;48.116;11.590;2023-05-16T02:37:53;5.83;;;4.93;;
17372;SDS011;8803;48.116;11.590;2023-05-16T02:39:57;5.40;;;4.90;;
17372;SDS011;8803;48.116;11.590;2023-05-16T02:42:01;4.57;;;4.17;;
17372;SDS011;8803;48.116;11.590;2023-05-16T02:44:15;5.60;;;5.10;;
17372;SDS011;8803;48.116;11.590;2023-05-16T02:46:23;5.60;;;5.10;;
17372;SDS011;8803;48.116;11.590;2023-05-16T02:48:35;5.03;;;4.63;;
17372;SDS011;8803;48.116;11.590;2023-05-16T02:50:39;5.03;;;4.63;;
17372;SDS011;8803;48.116;11.590;2023-05-16T02:52:43;5.20;;;4.80;;
17372;SDS011;8803;48.116;11.590;2023-05-16T02:54:59;4.70;;;4.30;;
17372;SDS011;8803;48.116;11.590;2023-05-16T02:57:03;5.20;;;4.80;;
17372;SDS011;8803;48.116;11.590;2023-05-16T02:59:07;4.57;;;4.17;;
17372;SDS011;8803;48.116;11.590;2023-05-16T03:01:12;5.60;;;5.10;;
17372;SDS011;8803;48.116;11.590;2023-05-16T03:03:28;5.60;;;5.00;;
17372;SDS011;8803;48.116;11.590;2023-05-16T03:05:33;5.13;;;4.63;;
17372;SDS011;8803;48.116;11.590;2023-05-16T03:07:37;5.23;;;4.83;;
17372;SDS011;8803;48.116;11.590;2023-05-16T03:09:41;5.10;;;4.70;;
17372;SDS011;8803;48.116;11.590;2023-05-16T03:11:45;6.03;;;5.53;;
17372;SDS011;8803;48.116;11.590;2023-05-16T03:13:58;5.80;;;5.20;;
17372;SDS011;8803;48.116;11.590;2023-05-16T03:16:02;5.50;;;5.10;;
17372;SDS011;8803;48.116;11.590;2023-05-16T03:18:07;5.40;;;4.90;;
17372;SDS011;8803;48.116;11.590;2023-05-16T03:20:20;5.80;;;5.30;;
17372;SDS011;8803;48.116;11.590;2023-05-16T03:22:24;5.97;;;5.47;;
17372;SDS011;8803;48.116;11.590;2023-05-16T03:24:36;5.80;;;5.30;;
17372;SDS011;8803;48.116;11.590;2023-05-16T03:26:40;6.17;;;5.60;;
17372;SDS011;8803;48.116;11.590;2023-05-16T03:28:44;5.47;;;5.00;;
17372;SDS011;8803;48.116;11.590;2023-05-16T03:30:48;5.03;;;4.63;;
17372;SDS011;8803;48.116;11.590;2023-05-16T03:33:00;6.00;;;5.40;;
17372;SDS011;8803;48.116;11.590;2023-05-16T03:35:05;6.73;;;6.10;;
17372;SDS011;8803;48.116;11.590;2023-05-16T03:37:19;5.77;;;5.27;;
17372;SDS011;8803;48.116;11.590;2023-05-16T03:39:23;6.50;;;5.90;;
17372;SDS011;8803;48.116;11.590;2023-05-16T03:41:27;7.00;;;6.30;;
17372;SDS011;8803;48.116;11.590;2023-05-16T03:43:40;5.80;;;5.30;;
17372;SDS011;8803;48.116;11.590;2023-05-16T03:45:44;7.37;;;6.77;;
17372;SDS011;8803;48.116;11.590;2023-05-16T03:47:48;6.53;;;5.93;;
17372;SDS011;8803;48.116;11.590;2023-05-16T03:49:51;5.93;;;5.43;;
17372;SDS011;8803;48.116;11.590;2023-05-16T03:51:55;6.00;;;5.50;;
17372;SDS011;8803;48.116;11.590;2023-05-16T03:54:08;5.83;;;5.33;;
17372;SDS011;8803;48.116;11.590;2023-05-16T03:56:12;6.77;;;5.90;;
17372;SDS011;8803;48.116;11.590;2023-05-16T03:58:24;6.37;;;5.87;;
17372;SDS011;8803;48.116;11.590;2023-05-16T04:00:28;6.70;;;6.10;;
17372;SDS011;8803;48.116;11.590;2023-05-16T04:02:34;6.77;;;6.20;;
17372;SDS011;8803;48.116;11.590;2023-05-16T04:04:48;6.77;;;6.10;;
17372;SDS011;8803;48.116;11.590;2023-05-16T04:06:52;6.83;;;6.13;;
17372;SDS011;8803;48.116;11.590;2023-05-16T04:08:56;6.77;;;6.17;;
17372;SDS011;8803;48.116;11.590;2023-05-16T04:11:08;6.33;;;5.83;;
17372;SDS011;8803;48.116;11.590;2023-05-16T04:13:13;5.97;;;5.47;;
17372;SDS011;8803;48.116;11.590;2023-05-16T04:15:27;7.20;;;6.60;;
17372;SDS011;8803;48.116;11.590;2023-05-16T04:17:31;6.57;;;5.97;;
17372;SDS011;8803;48.116;11.590;2023-05-16T04:19:35;7.17;;;6.53;;
17372;SDS011;8803;48.116;11.590;2023-05-16T04:21:39;7.70;;;7.00;;
17372;SDS011;8803;48.116;11.590;2023-05-16T04:23:54;6.30;;;5.70;;
17372;SDS011;8803;48.116;11.590;2023-05-16T04:25:58;6.80;;;6.20;;
17372;SDS011;8803;48.116;11.590;2023-05-16T04:28:04;6.90;;;5.80;;
17372;SDS011;8803;48.116;11.590;2023-05-16T04:30:10;6.77;;;6.07;;
17372;SDS011;8803;48.116;11.590;2023-05-16T04:32:14;8.80;;;6.60;;
17372;SDS011;8803;48.116;11.590;2023-05-16T04:34:30;8.03;;;6.67;;
17372;SDS011;8803;48.116;11.590;2023-05-16T04:36:35;6.63;;;6.03;;
17372;SDS011;8803;48.116;11.590;2023-05-16T04:38:40;6.93;;;6.30;;
17372;SDS011;8803;48.116;11.590;2023-05-16T04:40:44;6.57;;;5.97;;
17372;SDS011;8803;48.116;11.590;2023-05-16T04:42:57;6.37;;;5.83;;
17372;SDS011;8803;48.116;11.590;2023-05-16T04:45:01;7.53;;;6.83;;
17372;SDS011;8803;48.116;11.590;2023-05-16T04:47:06;7.30;;;6.60;;
17372;SDS011;8803;48.116;11.590;2023-05-16T04:49:20;7.00;;;6.40;;
17372;SDS011;8803;48.116;11.590;2023-05-16T04:51:24;7.33;;;6.63;;
17372;SDS011;8803;48.116;11.590;2023-05-16T04:53:28;8.20;;;7.03;;
17372;SDS011;8803;48.116;11.590;2023-05-16T04:55:32;7.77;;;7.07;;
17372;SDS011;8803;48.116;11.590;2023-05-16T04:57:46;7.93;;;7.13;;
17372;SDS011;8803;48.116;11.590;2023-05-16T04:59:49;7.00;;;6.40;;
17372;SDS011;8803;48.116;11.590;2023-05-16T05:02:02;7.70;;;7.00;;
17372;SDS011;8803;48.116;11.590;2023-05-16T05:04:07;7.57;;;6.80;;
17372;SDS011;8803;48.116;11.590;2023-05-16T05:06:20;8.07;;;7.37;;
17372;SDS011;8803;48.116;11.590;2023-05-16T05:08:24;9.30;;;8.43;;
17372;SDS011;8803;48.116;11.590;2023-05-16T05:10:27;9.63;;;8.73;;
17372;SDS011;8803;48.116;11.590;2023-05-16T05:12:31;8.73;;;7.93;;
17372;SDS011;8803;48.116;11.590;2023-05-16T05:14:47;8.57;;;7.60;;
17372;SDS011;8803;48.116;11.590;2023-05-16T05:16:51;8.13;;;7.33;;
17372;SDS011;8803;48.116;11.590;2023-05-16T05:18:55;8.93;;;8.13;;
17372;SDS011;8803;48.116;11.590;2023-05-16T05:21:09;9.13;;;8.17;;
17372;SDS011;8803;48.116;11.590;2023-05-16T05:23:13;9.93;;;8.93;;
17372;SDS011;8803;48.116;11.590;2023-05-16T05:25:28;9.63;;;8.60;;
17372;SDS011;8803;48.116;11.590;2023-05-16T05:27:33;10.07;;;9.03;;
17372;SDS011;8803;48.116;11.590;2023-05-16T05:29:37;9.43;;;8.57;;
17372;SDS011;8803;48.116;11.590;2023-05-16T05:33:53;9.40;;;8.50;;
17372;SDS011;8803;48.116;11.590;2023-05-16T05:35:56;8.70;;;7.90;;
17372;SDS011;8803;48.116;11.590;2023-05-16T05:40:12;9.70;;;8.80;;
17372;SDS011;8803;48.116;11.590;2023-05-16T05:42:16;9.90;;;8.90;;
17372;SDS011;8803;48.116;11.590;2023-05-16T05:44:28;10.37;;;9.33;;
17372;SDS011;8803;48.116;11.590;2023-05-16T05:46:33;10.40;;;9.33;;
17372;SDS011;8803;48.116;11.590;2023-05-16T05:48:46;11.03;;;8.83;;
17372;SDS011;8803;48.116;11.590;2023-05-16T05:50:50;8.97;;;8.07;;
17372;SDS011;8803;48.116;11.590;2023-05-16T05:52:54;10.20;;;9.20;;
17372;SDS011;8803;48.116;11.590;2023-05-16T05:55:07;11.40;;;10.40;;
17372;SDS011;8803;48.116;11.590;2023-05-16T05:57:11;10.30;;;9.23;;
17372;SDS011;8803;48.116;11.590;2023-05-16T05:59:15;10.10;;;9.10;;
17372;SDS011;8803;48.116;11.590;2023-05-16T06:01:19;9.30;;;8.40;;
17372;SDS011;8803;48.116;11.590;2023-05-16T06:03:33;11.30;;;10.03;;
17372;SDS011;8803;48.116;11.590;2023-05-16T06:05:37;9.77;;;8.87;;
17372;SDS011;8803;48.116;11.590;2023-05-16T06:07:41;9.23;;;8.33;;
17372;SDS011;8803;48.116;11.590;2023-05-16T06:09:44;9.77;;;8.87;;
17372;SDS011;8803;48.116;11.590;2023-05-16T06:14:02;10.40;;;9.30;;
17372;SDS011;8803;48.116;11.590;2023-05-16T06:16:06;10.07;;;9.07;;
17372;SDS011;8803;48.116;11.590;2023-05-16T06:18:09;10.97;;;9.97;;
17372;SDS011;8803;48.116;11.590;2023-05-16T06:20:14;10.57;;;9.63;;
17372;SDS011;8803;48.116;11.590;2023-05-16T06:22:17;9.97;;;8.97;;
17372;SDS011;8803;48.116;11.590;2023-05-16T06:24:30;10.73;;;9.73;;
17372;SDS011;8803;48.116;11.590;2023-05-16T06:26:35;10.60;;;9.60;;
17372;SDS011;8803;48.116;11.590;2023-05-16T06:28:47;10.47;;;9.40;;
17372;SDS011;8803;48.116;11.590;2023-05-16T06:30:51;10.57;;;9.50;;
17372;SDS011;8803;48.116;11.590;2023-05-16T06:32:55;10.87;;;9.77;;
17372;SDS011;8803;48.116;11.590;2023-05-16T06:35:09;10.13;;;9.20;;
17372;SDS011;8803;48.116;11.590;2023-05-16T06:37:13;10.57;;;9.57;;
17372;SDS011;8803;48.116;11.590;2023-05-16T06:39:26;10.87;;;9.87;;
17372;SDS011;8803;48.116;11.590;2023-05-16T06:41:29;10.07;;;9.17;;
17372;SDS011;8803;48.116;11.590;2023-05-16T06:43:43;9.23;;;8.33;;
17372;SDS011;8803;48.116;11.590;2023-05-16T06:45:47;9.97;;;8.97;;
17372;SDS011;8803;48.116;11.590;2023-05-16T06:47:51;10.13;;;9.13;;
17372;SDS011;8803;48.116;11.590;2023-05-16T06:49:56;10.30;;;9.30;;
17372;SDS011;8803;48.116;11.590;2023-05-16T06:52:10;11.10;;;10.00;;
17372;SDS011;8803;48.116;11.590;2023-05-16T06:54:14;11.27;;;10.03;;
17372;SDS011;8803;48.116;11.590;2023-05-16T06:56:26;10.63;;;9.63;;
17372;SDS011;8803;48.116;11.590;2023-05-16T06:58:31;11.63;;;10.47;;
17372;SDS011;8803;48.116;11.590;2023-05-16T07:00:35;12.83;;;11.53;;
17372;SDS011;8803;48.116;11.590;2023-05-16T07:02:39;10.03;;;9.10;;
17372;SDS011;8803;48.116;11.590;2023-05-16T07:04:52;12.77;;;10.80;;
17372;SDS011;8803;48.116;11.590;2023-05-16T07:06:56;11.73;;;10.63;;
17372;SDS011;8803;48.116;11.590;2023-05-16T07:08:59;12.63;;;10.80;;
17372;SDS011;8803;48.116;11.590;2023-05-16T07:13:15;11.53;;;10.40;;
17372;SDS011;8803;48.116;11.590;2023-05-16T07:15:18;11.30;;;10.10;;
17372;SDS011;8803;48.116;11.590;2023-05-16T07:17:22;11.33;;;10.20;;
17372;SDS011;8803;48.116;11.590;2023-05-16T07:19:35;10.60;;;9.50;;
17372;SDS011;8803;48.116;11.590;2023-05-16T07:21:38;10.47;;;9.47;;
17372;SDS011;8803;48.116;11.590;2023-05-16T07:23:51;9.87;;;8.93;;
17372;SDS011;8803;48.116;11.590;2023-05-16T07:25:55;10.07;;;9.20;;
17372;SDS011;8803;48.116;11.590;2023-05-16T07:27:59;10.87;;;9.17;;
17372;SDS011;8803;48.116;11.590;2023-05-16T07:30:03;10.53;;;9.53;;
17372;SDS011;8803;48.116;11.590;2023-05-16T07:32:16;12.07;;;10.97;;
17372;SDS011;8803;48.116;11.590;2023-05-16T07:34:20;12.03;;;10.83;;
17372;SDS011;8803;48.116;11.590;2023-05-16T07:36:36;11.77;;;10.67;;
17372;SDS011;8803;48.116;11.590;2023-05-16T07:38:41;11.40;;;10.40;;
17372;SDS011;8803;48.116;11.590;2023-05-16T07:40:45;12.00;;;10.80;;
17372;SDS011;8803;48.116;11.590;2023-05-16T07:42:49;11.37;;;10.20;;
17372;SDS011;8803;48.116;11.590;2023-05-16T07:45:02;10.70;;;9.73;;
17372;SDS011;8803;48.116;11.590;2023-05-16T07:47:08;11.13;;;10.13;;
17372;SDS011;8803;48.116;11.590;2023-05-16T07:49:12;11.47;;;10.37;;
17372;SDS011;8803;48.116;11.590;2023-05-16T07:51:24;11.70;;;10.50;;
17372;SDS011;8803;48.116;11.590;2023-05-16T07:53:29;11.43;;;10.33;;
17372;SDS011;8803;48.116;11.590;2023-05-16T07:55:42;12.30;;;11.00;;
17372;SDS011;8803;48.116;11.590;2023-05-16T07:57:45;11.73;;;10.63;;
17372;SDS011;8803;48.116;11.590;2023-05-16T07:59:49;12.37;;;11.03;;
17372;SDS011;8803;48.116;11.590;2023-05-16T08:01:53;11.73;;;10.17;;
17372;SDS011;8803;48.116;11.590;2023-05-16T08:04:06;12.93;;;11.63;;
17372;SDS011;8803;48.116;11.590;2023-05-16T08:06:10;11.73;;;10.63;;
17372;SDS011;8803;48.116;11.590;2023-05-16T08:08:25;12.30;;;11.10;;
17372;SDS011;8803;48.116;11.590;2023-05-16T08:10:29;12.57;;;11.27;;
17372;SDS011;8803;48.116;11.590;2023-05-16T08:12:33;11.87;;;10.67;;
17372;SDS011;8803;48.116;11.590;2023-05-16T08:14:47;10.60;;;9.60;;
17372;SDS011;8803;48.116;11.590;2023-05-16T08:16:51;11.93;;;10.83;;
17372;SDS011;8803;48.116;11.590;2023-05-16T08:18:55;10.90;;;9.90;;
17372;SDS011;8803;48.116;11.590;2023-05-16T08:20:59;10.73;;;9.73;;
17372;SDS011;8803;48.116;11.590;2023-05-16T08:23:11;11.20;;;10.10;;
17372;SDS011;8803;48.116;11.590;2023-05-16T08:25:16;11.13;;;10.03;;
17372;SDS011;8803;48.116;11.590;2023-05-16T08:27:20;10.13;;;9.13;;
17372;SDS011;8803;48.116;11.590;2023-05-16T08:29:34;11.37;;;10.37;;
17372;SDS011;8803;48.116;11.590;2023-05-16T08:31:38;12.13;;;10.73;;
17372;SDS011;8803;48.116;11.590;2023-05-16T08:33:50;11.50;;;10.17;;
17372;SDS011;8803;48.116;11.590;2023-05-16T08:35:54;11.03;;;10.00;;
17372;SDS011;8803;48.116;11.590;2023-05-16T08:37:58;11.37;;;10.27;;
17372;SDS011;8803;48.116;11.590;2023-05-16T08:42:15;10.83;;;9.83;;
17372;SDS011;8803;48.116;11.590;2023-05-16T08:44:19;11.47;;;10.27;;
17372;SDS011;8803;48.116;11.590;2023-05-16T08:46:31;13.20;;;12.00;;
17372;SDS011;8803;48.116;11.590;2023-05-16T08:48:36;13.33;;;12.07;;
17372;SDS011;8803;48.116;11.590;2023-05-16T08:50:42;13.50;;;12.20;;
17372;SDS011;8803;48.116;11.590;2023-05-16T08:52:46;13.27;;;12.07;;
17372;SDS011;8803;48.116;11.590;2023-05-16T08:54:53;13.30;;;11.93;;
17372;SDS011;8803;48.116;11.590;2023-05-16T08:57:11;13.33;;;12.13;;
17372;SDS011;8803;48.116;11.590;2023-05-16T08:59:25;13.33;;;12.10;;
17372;SDS011;8803;48.116;11.590;2023-05-16T09:01:29;12.73;;;11.53;;
17372;SDS011;8803;48.116;11.590;2023-05-16T09:03:44;15.20;;;13.70;;
17372;SDS011;8803;48.116;11.590;2023-05-16T09:05:48;13.00;;;11.70;;
17372;SDS011;8803;48.116;11.590;2023-05-16T09:07:52;13.83;;;12.53;;
17372;SDS011;8803;48.116;11.590;2023-05-16T09:09:56;12.53;;;11.43;;
17372;SDS011;8803;48.116;11.590;2023-05-16T09:12:12;12.83;;;11.57;;
17372;SDS011;8803;48.116;11.590;2023-05-16T09:14:16;11.93;;;10.83;;
17372;SDS011;8803;48.116;11.590;2023-05-16T09:16:29;11.43;;;10.33;;
17372;SDS011;8803;48.116;11.590;2023-05-16T09:18:33;12.90;;;11.60;;
17372;SDS011;8803;48.116;11.590;2023-05-16T09:20:37;12.47;;;11.33;;
17372;SDS011;8803;48.116;11.590;2023-05-16T09:22:51;12.63;;;11.43;;
17372;SDS011;8803;48.116;11.590;2023-05-16T09:25:05;11.80;;;10.80;;
17372;SDS011;8803;48.116;11.590;2023-05-16T09:27:10;12.73;;;11.57;;
17372;SDS011;8803;48.116;11.590;2023-05-16T09:29:24;11.90;;;10.80;;
17372;SDS011;8803;48.116;11.590;2023-05-16T09:33:41;11.67;;;10.47;;
17372;SDS011;8803;48.116;11.590;2023-05-16T09:35:44;12.17;;;10.83;;
17372;SDS011;8803;48.116;11.590;2023-05-16T09:37:49;14.70;;;10.17;;
17372;SDS011;8803;48.116;11.590;2023-05-16T09:40:01;10.17;;;9.37;;
17372;SDS011;8803;48.116;11.590;2023-05-16T09:42:09;11.70;;;10.60;;
17372;SDS011;8803;48.116;11.590;2023-05-16T09:44:22;11.40;;;10.30;;
17372;SDS011;8803;48.116;11.590;2023-05-16T09:46:26;11.80;;;10.70;;
17372;SDS011;8803;48.116;11.590;2023-05-16T09:48:40;11.10;;;10.00;;
17372;SDS011;8803;48.116;11.590;2023-05-16T09:50:48;10.13;;;9.13;;
17372;SDS011;8803;48.116;11.590;2023-05-16T09:52:54;12.13;;;10.93;;
17372;SDS011;8803;48.116;11.590;2023-05-16T09:55:08;10.77;;;9.87;;
17372;SDS011;8803;48.116;11.590;2023-05-16T09:57:12;12.47;;;11.23;;
17372;SDS011;8803;48.116;11.590;2023-05-16T09:59:21;11.70;;;10.50;;
17372;SDS011;8803;48.116;11.590;2023-05-16T10:01:33;12.00;;;10.73;;
17372;SDS011;8803;48.116;11.590;2023-05-16T10:03:38;13.10;;;11.83;;
17372;SDS011;8803;48.116;11.590;2023-05-16T10:05:51;12.43;;;11.23;;
17372;SDS011;8803;48.116;11.590;2023-05-16T10:07:56;11.97;;;10.77;;
17372;SDS011;8803;48.116;11.590;2023-05-16T10:10:02;11.13;;;10.13;;
17372;SDS011;8803;48.116;11.590;2023-05-16T10:12:15;11.43;;;10.47;;
17372;SDS011;8803;48.116;11.590;2023-05-16T10:14:18;11.67;;;10.67;;
17372;SDS011;8803;48.116;11.590;2023-05-16T10:16:32;12.13;;;11.03;;
17372;SDS011;8803;48.116;11.590;2023-05-16T10:18:37;10.93;;;9.93;;
17372;SDS011;8803;48.116;11.590;2023-05-16T10:20:41;11.83;;;10.80;;
17372;SDS011;8803;48.116;11.590;2023-05-16T10:22:49;12.90;;;11.70;;
17372;SDS011;8803;48.116;11.590;2023-05-16T10:25:06;12.33;;;11.23;;
17372;SDS011;8803;48.116;11.590;2023-05-16T10:27:13;11.30;;;10.33;;
17372;SDS011;8803;48.116;11.590;2023-05-16T10:29:30;11.77;;;10.57;;
17372;SDS011;8803;48.116;11.590;2023-05-16T10:31:35;10.63;;;9.73;;
17372;SDS011;8803;48.116;11.590;2023-05-16T10:33:48;11.70;;;10.63;;
17372;SDS011;8803;48.116;11.590;2023-05-16T10:35:52;10.83;;;9.93;;
17372;SDS011;8803;48.116;11.590;2023-05-16T10:37:56;11.50;;;10.47;;
17372;SDS011;8803;48.116;11.590;2023-05-16T10:40:01;12.30;;;11.30;;
17372;SDS011;8803;48.116;11.590;2023-05-16T10:42:07;12.43;;;11.33;;
17372;SDS011;8803;48.116;11.590;2023-05-16T10:44:24;13.20;;;12.00;;
17372;SDS011;8803;48.116;11.590;2023-05-16T10:46:29;11.37;;;10.33;;
17372;SDS011;8803;48.116;11.590;2023-05-16T10:48:34;11.33;;;10.30;;
17372;SDS011;8803;48.116;11.590;2023-05-16T10:50:42;12.13;;;11.03;;
17372;SDS011;8803;48.116;11.590;2023-05-16T10:54:57;12.90;;;11.80;;
17372;SDS011;8803;48.116;11.590;2023-05-16T10:57:06;11.70;;;10.70;;
17372;SDS011;8803;48.116;11.590;2023-05-16T10:59:21;12.30;;;11.20;;
17372;SDS011;8803;48.116;11.590;2023-05-16T11:01:34;12.57;;;11.23;;
17372;SDS011;8803;48.116;11.590;2023-05-16T11:03:43;13.33;;;12.07;;
17372;SDS011;8803;48.116;11.590;2023-05-16T11:06:07;12.50;;;11.30;;
17372;SDS011;8803;48.116;11.590;2023-05-16T11:08:20;11.73;;;10.73;;
17372;SDS011;8803;48.116;11.590;2023-05-16T11:10:24;15.47;;;14.03;;
17372;SDS011;8803;48.116;11.590;2023-05-16T11:12:35;14.63;;;13.23;;
17372;SDS011;8803;48.116;11.590;2023-05-16T11:14:50;13.30;;;12.10;;
17372;SDS011;8803;48.116;11.590;2023-05-16T11:16:59;13.27;;;12.10;;
17372;SDS011;8803;48.116;11.590;2023-05-16T11:19:04;11.60;;;10.60;;
17372;SDS011;8803;48.116;11.590;2023-05-16T11:21:08;11.43;;;10.43;;
17372;SDS011;8803;48.116;11.590;2023-05-16T11:23:23;12.70;;;11.47;;
17372;SDS011;8803;48.116;11.590;2023-05-16T11:25:34;11.27;;;10.27;;
17372;SDS011;8803;48.116;11.590;2023-05-16T11:29:52;13.20;;;11.90;;
17372;SDS011;8803;48.116;11.590;2023-05-16T11:31:57;11.77;;;10.67;;
17372;SDS011;8803;48.116;11.590;2023-05-16T11:34:10;11.33;;;10.33;;
17372;SDS011;8803;48.116;11.590;2023-05-16T11:38:29;11.97;;;10.87;;
17372;SDS011;8803;48.116;11.590;2023-05-16T11:40:33;12.27;;;11.07;;
17372;SDS011;8803;48.116;11.590;2023-05-16T11:44:48;10.53;;;9.53;;
17372;SDS011;8803;48.116;11.590;2023-05-16T11:46:54;12.00;;;11.00;;
17372;SDS011;8803;48.116;11.590;2023-05-16T11:48:57;9.97;;;8.97;;
17372;SDS011;8803;48.116;11.590;2023-05-16T11:51:10;10.20;;;9.20;;
17372;SDS011;8803;48.116;11.590;2023-05-16T11:53:16;8.67;;;7.87;;
17372;SDS011;8803;48.116;11.590;2023-05-16T11:55:29;8.77;;;8.07;;
17372;SDS011;8803;48.116;11.590;2023-05-16T11:57:34;8.80;;;8.00;;
17372;SDS011;8803;48.116;11.590;2023-05-16T11:59:39;12.63;;;11.30;;
17372;SDS011;8803;48.116;11.590;2023-05-16T12:01:52;12.63;;;11.33;;
17372;SDS011;8803;48.116;11.590;2023-05-16T12:03:56;11.30;;;10.30;;
17372;SDS011;8803;48.116;11.590;2023-05-16T12:06:08;9.73;;;8.83;;
17372;SDS011;8803;48.116;11.590;2023-05-16T12:08:12;9.50;;;8.60;;
17372;SDS011;8803;48.116;11.590;2023-05-16T12:10:17;9.73;;;8.93;;
17372;SDS011;8803;48.116;11.590;2023-05-16T12:12:21;9.77;;;8.93;;
17372;SDS011;8803;48.116;11.590;2023-05-16T12:14:35;10.03;;;9.13;;
17372;SDS011;8803;48.116;11.590;2023-05-16T12:16:39;9.80;;;9.00;;
17372;SDS011;8803;48.116;11.590;2023-05-16T12:18:43;11.57;;;10.47;;
17372;SDS011;8803;48.116;11.590;2023-05-16T12:20:47;11.20;;;10.17;;
17372;SDS011;8803;48.116;11.590;2023-05-16T12:22:52;11.03;;;10.07;;
17372;SDS011;8803;48.116;11.590;2023-05-16T12:25:22;11.00;;;10.00;;
17372;SDS011;8803;48.116;11.590;2023-05-16T12:27:27;10.77;;;9.77;;
17372;SDS011;8803;48.116;11.590;2023-05-16T12:29:46;13.17;;;10.00;;
17372;SDS011;8803;48.116;11.590;2023-05-16T12:31:52;10.77;;;9.80;;
17372;SDS011;8803;48.116;11.590;2023-05-16T12:34:05;14.00;;;12.70;;
17372;SDS011;8803;48.116;11.590;2023-05-16T12:36:21;14.30;;;13.00;;
17372;SDS011;8803;48.116;11.590;2023-05-16T12:38:26;14.30;;;12.90;;
17372;SDS011;8803;48.116;11.590;2023-05-16T12:40:29;12.93;;;11.70;;
17372;SDS011;8803;48.116;11.590;2023-05-16T12:42:33;12.67;;;11.50;;
17372;SDS011;8803;48.116;11.590;2023-05-16T12:44:46;13.83;;;12.17;;
17372;SDS011;8803;48.116;11.590;2023-05-16T12:46:50;13.10;;;11.80;;
17372;SDS011;8803;48.116;11.590;2023-05-16T12:49:00;13.50;;;12.33;;
17372;SDS011;8803;48.116;11.590;2023-05-16T12:51:10;13.27;;;12.07;;
17372;SDS011;8803;48.116;11.590;2023-05-16T12:53:14;14.60;;;13.30;;
17372;SDS011;8803;48.116;11.590;2023-05-16T12:55:30;13.40;;;12.20;;
17372;SDS011;8803;48.116;11.590;2023-05-16T12:57:43;17.10;;;15.50;;
17372;SDS011;8803;48.116;11.590;2023-05-16T12:59:48;18.63;;;16.93;;
17372;SDS011;8803;48.116;11.590;2023-05-16T13:01:52;16.27;;;14.67;;
17372;SDS011;8803;48.116;11.590;2023-05-16T13:04:05;14.20;;;12.80;;
17372;SDS011;8803;48.116;11.590;2023-05-16T13:06:11;13.70;;;12.40;;